CheckWX is a tool to help pilots better visualize weather data.  It is not intended as a substitute for an official pre-flight weather briefing.

14:53:51 UTC

EGHI TAF
Southampton Airport
Southampton, United Kingdom
TAF EGHI 191404Z 1915/1923 18005KT 9999 SCT030

Nov-19@
15:00 UTC

Nov-19 @ 15:00 UTC

Nov-19@
23:00 UTC

Nov-19 @ 23:00 UTC

TAF EGHI 191404Z 1915/1923 18005KT 9999 SCT030
Wind
  • 180° at 5 KTS
Cloud Levels
  • Scattered at 3,000' AGL